Time;durP1;ratioP1;P1;durP2;ratioP2;P2;SDS_P1;SDS_P2;PMS_P1;PMS_P2;Temp;Humidity;BMP_temperature;BMP_pressure;BME280_temperature;BME280_humidity;BME280_pressure;Samples;Min_cycle;Max_cycle;Signal;HPM_P1;HPM_P2
2022/07/23 00:00:35;;;;;;;0.95;0.55;;;24.90;94.60;;;;;;4934302;29;20035;-69
2022/07/23 00:03:01;;;;;;;0.20;0.20;;;24.90;94.70;;;;;;4935103;29;20035;-69
2022/07/23 00:05:27;;;;;;;0.38;0.38;;;24.90;94.50;;;;;;4934230;29;20035;-69
2022/07/23 00:07:53;;;;;;;1.40;0.90;;;24.90;94.50;;;;;;4935698;29;20078;-69
2022/07/23 00:10:18;;;;;;;0.40;0.30;;;24.90;94.60;;;;;;4934518;29;20028;-69
2022/07/23 00:12:44;;;;;;;0.82;0.70;;;24.80;94.70;;;;;;4948719;29;20087;-69
2022/07/23 00:15:10;;;;;;;1.95;1.27;;;24.80;94.60;;;;;;4949666;29;20040;-68
2022/07/23 00:17:36;;;;;;;1.60;0.98;;;24.70;94.80;;;;;;4935337;29;20042;-69
2022/07/23 00:20:03;;;;;;;0.95;0.82;;;24.60;95.00;;;;;;4934615;29;20082;-69
2022/07/23 00:22:29;;;;;;;0.60;0.60;;;24.50;95.30;;;;;;4949574;29;20039;-69
2022/07/23 00:24:56;;;;;;;0.30;0.22;;;24.40;95.50;;;;;;4949469;29;20031;-69
2022/07/23 00:27:22;;;;;;;0.30;0.30;;;24.30;95.90;;;;;;4950030;29;20028;-69
2022/07/23 00:29:48;;;;;;;0.73;0.73;;;24.20;96.20;;;;;;4949575;29;20114;-69
2022/07/23 00:32:14;;;;;;;0.75;0.52;;;24.10;96.60;;;;;;4949078;29;20122;-68
2022/07/23 00:34:39;;;;;;;0.13;0.13;;;24.10;96.80;;;;;;4934531;28;20028;-68
2022/07/23 00:37:05;;;;;;;2.05;0.50;;;24.00;97.00;;;;;;4949519;29;20091;-68
2022/07/23 00:39:31;;;;;;;0.50;0.50;;;24.00;97.20;;;;;;4948680;29;20083;-69
2022/07/23 00:41:56;;;;;;;0.15;0.15;;;23.90;97.50;;;;;;4949475;29;20074;-69
2022/07/23 00:44:28;;;;;;;0.47;0.47;;;23.90;97.70;;;;;;4949416;29;20035;-68
2022/07/23 00:46:58;;;;;;;0.32;0.32;;;23.90;97.70;;;;;;4949386;29;20087;-69
2022/07/23 00:49:29;;;;;;;0.35;0.30;;;23.90;97.70;;;;;;4948926;29;20424;-69
2022/07/23 00:51:57;;;;;;;0.82;0.77;;;23.90;97.90;;;;;;4934599;29;20032;-69
2022/07/23 00:54:26;;;;;;;3.92;0.68;;;23.90;97.80;;;;;;4934243;29;20035;-69
2022/07/23 00:56:52;;;;;;;0.60;0.57;;;24.00;97.80;;;;;;4949380;29;20039;-69
2022/07/23 00:59:18;;;;;;;0.60;0.55;;;24.00;97.70;;;;;;4949230;29;20024;-69
2022/07/23 01:01:45;;;;;;;0.68;0.68;;;24.00;97.70;;;;;;4949173;29;20038;-69
2022/07/23 01:04:11;;;;;;;3.92;0.68;;;24.00;97.80;;;;;;4932509;29;20120;-70
2022/07/23 01:06:38;;;;;;;2.90;1.00;;;24.00;98.00;;;;;;4937938;29;20047;-70
2022/07/23 01:09:06;;;;;;;0.28;0.28;;;24.00;98.20;;;;;;4943144;29;20564;-70
2022/07/23 01:11:35;;;;;;;0.30;0.30;;;23.90;98.40;;;;;;4958876;28;20067;-69
2022/07/23 01:14:13;;;;;;;0.73;0.63;;;24.00;98.30;;;;;;4967901;28;20074;-69
2022/07/23 01:16:40;;;;;;;6.53;0.77;;;24.00;98.60;;;;;;4953279;28;20023;-70
2022/07/23 01:19:06;;;;;;;0.08;0.08;;;23.90;98.60;;;;;;4967767;28;20447;-68
2022/07/23 01:21:40;;;;;;;0.00;0.00;;;23.80;98.80;;;;;;4967819;28;20023;-69
2022/07/23 01:24:08;;;;;;;1.00;0.13;;;23.70;99.30;;;;;;4980372;23;20114;-63
2022/07/23 01:26:34;;;;;;;0.40;0.40;;;23.70;99.40;;;;;;4942334;29;20484;-63
2022/07/23 01:29:01;;;;;;;0.30;0.30;;;23.70;99.40;;;;;;4933574;29;20032;-63
2022/07/23 01:31:27;;;;;;;0.80;0.80;;;23.70;99.70;;;;;;4933245;29;20039;-63
2022/07/23 01:33:52;;;;;;;0.40;0.40;;;23.60;99.60;;;;;;4933056;29;20048;-63
2022/07/23 01:36:18;;;;;;;0.30;0.30;;;23.60;99.60;;;;;;4933983;29;20035;-63
2022/07/23 01:38:44;;;;;;;2.60;1.63;;;23.60;99.80;;;;;;4932305;29;20114;-64
2022/07/23 01:41:10;;;;;;;0.55;0.50;;;23.40;99.90;;;;;;4949452;28;20518;-63
2022/07/23 01:43:36;;;;;;;0.55;0.52;;;23.50;99.90;;;;;;4986795;28;20535;-63
2022/07/23 01:46:01;;;;;;;14.70;0.45;;;23.50;99.90;;;;;;4972077;28;20089;-63
2022/07/23 01:48:27;;;;;;;0.25;0.25;;;23.50;99.90;;;;;;4971925;28;20049;-63
2022/07/23 01:50:53;;;;;;;8.57;0.60;;;23.50;99.90;;;;;;4972100;28;20042;-63
2022/07/23 01:53:19;;;;;;;0.85;0.75;;;23.40;99.90;;;;;;4971833;28;20062;-63
2022/07/23 01:55:44;;;;;;;0.85;0.82;;;23.40;99.90;;;;;;4971936;28;20026;-63
2022/07/23 01:58:10;;;;;;;0.55;0.55;;;23.60;99.90;;;;;;4954886;28;20022;-63
2022/07/23 02:00:36;;;;;;;1.50;0.43;;;23.60;99.90;;;;;;4972173;28;20034;-63
2022/07/23 02:03:02;;;;;;;4.00;1.60;;;23.60;99.90;;;;;;4971559;28;20037;-63
2022/07/23 02:05:29;;;;;;;2.45;0.30;;;23.60;99.90;;;;;;4972209;28;20035;-63
2022/07/23 02:07:57;;;;;;;17.42;0.90;;;23.60;99.90;;;;;;4972064;28;20069;-63
2022/07/23 02:10:23;;;;;;;0.00;0.00;;;23.30;99.90;;;;;;4970440;28;20140;-63
2022/07/23 02:12:49;;;;;;;0.85;0.47;;;23.30;99.90;;;;;;4971546;28;20031;-63
2022/07/23 02:15:15;;;;;;;0.38;0.35;;;23.30;99.90;;;;;;4963879;28;20027;-63
2022/07/23 02:17:41;;;;;;;2.63;0.57;;;23.30;99.90;;;;;;4967286;28;20086;-64
2022/07/23 02:20:08;;;;;;;0.10;0.10;;;23.30;99.90;;;;;;4967511;28;20031;-63
2022/07/23 02:22:34;;;;;;;2.58;1.25;;;23.30;99.90;;;;;;4951142;28;20099;-64
2022/07/23 02:25:00;;;;;;;0.82;0.63;;;23.30;99.90;;;;;;4954755;28;20122;-64
2022/07/23 02:27:26;;;;;;;2.05;0.65;;;23.20;99.90;;;;;;4956255;29;20723;-64
2022/07/23 02:29:52;;;;;;;0.45;0.45;;;23.20;99.90;;;;;;4955948;29;20468;-64
2022/07/23 02:32:17;;;;;;;0.45;0.25;;;23.20;99.90;;;;;;4970571;28;20035;-64
2022/07/23 02:34:43;;;;;;;2.45;1.30;;;23.10;99.90;;;;;;4956143;29;20027;-64
2022/07/23 02:37:09;;;;;;;1.95;0.30;;;23.10;99.90;;;;;;4956398;28;20078;-64
2022/07/23 02:39:37;;;;;;;1.17;1.08;;;23.10;99.90;;;;;;4970611;28;20472;-64
2022/07/23 02:42:03;;;;;;;1.45;0.95;;;23.00;99.90;;;;;;4955969;28;20089;-64
2022/07/23 02:44:29;;;;;;;0.80;0.68;;;23.00;99.90;;;;;;4955786;28;20031;-64
2022/07/23 02:46:55;;;;;;;1.83;1.00;;;23.00;99.90;;;;;;4956046;29;20396;-63
2022/07/23 02:49:20;;;;;;;0.35;0.35;;;23.00;99.90;;;;;;4954267;28;20043;-64
2022/07/23 02:51:46;;;;;;;0.45;0.30;;;22.90;99.90;;;;;;4956166;29;20102;-64
2022/07/23 02:54:12;;;;;;;0.20;0.20;;;22.80;99.90;;;;;;4955351;28;20039;-64
2022/07/23 02:56:37;;;;;;;0.40;0.40;;;22.70;99.90;;;;;;4956000;28;20031;-64
2022/07/23 02:59:03;;;;;;;2.75;0.95;;;22.70;99.90;;;;;;4955292;29;20023;-64
2022/07/23 03:01:29;;;;;;;0.30;0.30;;;22.60;99.90;;;;;;4955828;29;20102;-64
2022/07/23 03:03:54;;;;;;;1.65;1.15;;;22.80;99.90;;;;;;4954978;28;20046;-64
2022/07/23 03:06:20;;;;;;;17.55;1.23;;;22.70;99.90;;;;;;4955613;28;20038;-64
2022/07/23 03:08:46;;;;;;;0.30;0.30;;;22.80;99.90;;;;;;4955447;28;20558;-64
2022/07/23 03:11:12;;;;;;;0.77;0.40;;;22.80;99.90;;;;;;4954327;28;20035;-64
2022/07/23 03:13:39;;;;;;;1.20;0.77;;;22.80;99.90;;;;;;4955033;29;20042;-64
2022/07/23 03:16:05;;;;;;;0.60;0.60;;;22.70;99.90;;;;;;4984996;28;20116;-64
2022/07/23 03:18:31;;;;;;;0.40;0.25;;;22.70;99.90;;;;;;4974748;28;20031;-64
2022/07/23 03:20:57;;;;;;;0.85;0.73;;;22.50;99.90;;;;;;4974516;28;20030;-64
2022/07/23 03:23:23;;;;;;;0.75;0.65;;;22.50;99.90;;;;;;4974320;28;20506;-64
2022/07/23 03:25:49;;;;;;;0.40;0.40;;;22.50;99.90;;;;;;4988870;28;20129;-63
2022/07/23 03:28:16;;;;;;;0.30;0.28;;;22.40;99.90;;;;;;4974545;28;20031;-64
2022/07/23 03:30:46;;;;;;;3.00;0.60;;;22.50;99.90;;;;;;4974469;28;20041;-64
2022/07/23 03:33:16;;;;;;;0.20;0.15;;;22.50;99.90;;;;;;4973942;28;20384;-64
2022/07/23 03:35:47;;;;;;;2.75;0.57;;;22.50;99.90;;;;;;4974488;28;20045;-63
2022/07/23 03:38:13;;;;;;;0.20;0.20;;;22.60;99.90;;;;;;4957388;28;20034;-63
2022/07/23 03:40:39;;;;;;;0.88;0.88;;;22.40;99.90;;;;;;4974154;28;20121;-64
2022/07/23 03:43:05;;;;;;;0.50;0.43;;;22.50;99.90;;;;;;4988817;28;20119;-64
2022/07/23 03:45:31;;;;;;;0.52;0.38;;;22.60;99.90;;;;;;4974453;28;20030;-64
2022/07/23 03:47:57;;;;;;;3.72;1.35;;;22.60;99.90;;;;;;4989313;28;20050;-63
2022/07/23 03:50:24;;;;;;;0.68;0.40;;;22.80;99.90;;;;;;4972638;28;20031;-64
2022/07/23 03:52:49;;;;;;;0.10;0.10;;;22.90;99.90;;;;;;4974084;28;20056;-64
2022/07/23 03:55:15;;;;;;;2.25;0.50;;;22.80;99.90;;;;;;4974157;28;20490;-64
2022/07/23 03:57:41;;;;;;;1.48;1.05;;;22.80;99.90;;;;;;4973984;28;20026;-64
2022/07/23 04:00:09;;;;;;;1.52;1.23;;;22.80;99.90;;;;;;4972340;28;20041;-64
2022/07/23 04:02:37;;;;;;;0.35;0.35;;;22.60;99.90;;;;;;4973495;28;20081;-64
2022/07/23 04:05:03;;;;;;;0.43;0.43;;;22.40;99.90;;;;;;4972552;28;20591;-63
2022/07/23 04:07:29;;;;;;;0.35;0.35;;;22.60;99.90;;;;;;4974279;28;20035;-64
2022/07/23 04:09:54;;;;;;;0.77;0.65;;;22.60;99.90;;;;;;4973318;28;20041;-63
2022/07/23 04:12:20;;;;;;;0.80;0.73;;;22.50;99.90;;;;;;4972672;28;20518;-64
2022/07/23 04:14:46;;;;;;;0.20;0.20;;;22.40;99.90;;;;;;4969458;28;20492;-63
2022/07/23 04:17:12;;;;;;;0.60;0.60;;;22.40;99.90;;;;;;4955080;28;20027;-64
2022/07/23 04:19:43;;;;;;;0.90;0.47;;;22.50;99.90;;;;;;4968831;28;20036;-63
2022/07/23 04:22:10;;;;;;;1.10;0.98;;;22.30;99.90;;;;;;4954237;28;20114;-64
2022/07/23 04:24:36;;;;;;;0.10;0.10;;;22.10;99.90;;;;;;4953943;29;20039;-64
2022/07/23 04:27:02;;;;;;;0.47;0.47;;;21.90;99.90;;;;;;4954145;29;20031;-64
2022/07/23 04:29:29;;;;;;;1.35;1.20;;;21.70;99.90;;;;;;4953857;29;20396;-64
2022/07/23 04:31:55;;;;;;;4.93;1.13;;;21.70;99.90;;;;;;4969066;28;20035;-63
2022/07/23 04:34:20;;;;;;;0.82;0.82;;;21.80;99.90;;;;;;4953593;29;20031;-64
2022/07/23 04:36:46;;;;;;;0.03;0.03;;;21.90;99.90;;;;;;4954136;28;20035;-64
2022/07/23 04:39:12;;;;;;;1.48;1.27;;;21.90;99.90;;;;;;4953590;29;20039;-64
2022/07/23 04:41:38;;;;;;;0.65;0.52;;;22.00;99.90;;;;;;4954284;29;20472;-64
2022/07/23 04:44:03;;;;;;;1.90;1.05;;;21.90;99.90;;;;;;4968534;28;20035;-64
2022/07/23 04:46:29;;;;;;;6.75;1.92;;;21.90;99.90;;;;;;4953327;28;20035;-64
2022/07/23 04:48:55;;;;;;;0.60;0.60;;;21.90;99.90;;;;;;4968690;28;20039;-64
2022/07/23 04:51:21;;;;;;;2.08;1.20;;;21.80;99.90;;;;;;4954255;28;20479;-64
2022/07/23 04:53:46;;;;;;;6.13;0.98;;;21.70;99.90;;;;;;4953144;29;20114;-64
2022/07/23 04:56:13;;;;;;;1.80;0.85;;;21.70;99.90;;;;;;4952578;29;20396;-64
2022/07/23 04:58:38;;;;;;;0.30;0.30;;;21.70;99.90;;;;;;4953122;28;20121;-63
2022/07/23 05:01:04;;;;;;;3.78;1.80;;;21.60;99.90;;;;;;4953865;28;20744;-63
2022/07/23 05:03:30;;;;;;;1.30;1.20;;;21.60;99.90;;;;;;4953140;29;20559;-63
2022/07/23 05:05:56;;;;;;;0.28;0.28;;;21.60;99.90;;;;;;4953541;29;20110;-63
2022/07/23 05:08:22;;;;;;;0.32;0.32;;;21.60;99.90;;;;;;4953111;29;20098;-63
2022/07/23 05:10:48;;;;;;;2.40;1.48;;;21.40;99.90;;;;;;4953052;29;20399;-63
2022/07/23 05:13:18;;;;;;;0.55;0.50;;;21.20;99.90;;;;;;4952786;29;20106;-63
2022/07/23 05:15:45;;;;;;;0.22;0.22;;;21.20;99.90;;;;;;4965272;28;20399;-62
2022/07/23 05:18:11;;;;;;;1.35;1.25;;;21.30;99.90;;;;;;4972510;28;20049;-62
2022/07/23 05:20:37;;;;;;;0.40;0.40;;;21.30;99.90;;;;;;4971549;28;20396;-62
2022/07/23 05:23:03;;;;;;;1.50;1.40;;;21.20;99.90;;;;;;4970888;28;20027;-62
2022/07/23 05:25:29;;;;;;;1.17;0.73;;;20.80;99.90;;;;;;4972335;28;20089;-62
2022/07/23 05:27:54;;;;;;;1.08;1.02;;;20.80;99.90;;;;;;4972608;28;20023;-62
2022/07/23 05:30:20;;;;;;;0.20;0.20;;;21.00;99.90;;;;;;4972269;28;20030;-62
2022/07/23 05:32:46;;;;;;;1.52;1.42;;;21.00;99.90;;;;;;4970685;28;20026;-62
2022/07/23 05:35:12;;;;;;;1.00;0.60;;;21.00;99.90;;;;;;4972102;28;20027;-62
2022/07/23 05:37:38;;;;;;;3.70;1.08;;;21.10;99.90;;;;;;4958694;28;20423;-62
2022/07/23 05:40:09;;;;;;;1.48;1.38;;;21.30;99.90;;;;;;4958374;28;20026;-62
2022/07/23 05:42:39;;;;;;;9.00;1.35;;;21.50;99.90;;;;;;4970874;28;20030;-62
2022/07/23 05:45:06;;;;;;;1.45;1.13;;;21.40;99.90;;;;;;4972231;28;20031;-62
2022/07/23 05:47:43;;;;;;;0.30;0.30;;;21.60;99.90;;;;;;4972051;28;20057;-63
2022/07/23 05:50:10;;;;;;;1.58;0.77;;;21.20;99.90;;;;;;4971775;28;20038;-63
2022/07/23 05:52:36;;;;;;;2.67;1.45;;;21.30;99.90;;;;;;4970521;28;20027;-63
2022/07/23 05:55:03;;;;;;;2.80;0.80;;;21.40;99.90;;;;;;4970803;28;20046;-63
2022/07/23 05:57:28;;;;;;;1.27;1.17;;;21.10;99.90;;;;;;4970884;28;20570;-63
2022/07/23 05:59:54;;;;;;;4.60;2.63;;;21.00;99.90;;;;;;4975726;28;20126;-63
2022/07/23 06:02:20;;;;;;;4.85;1.23;;;20.80;99.90;;;;;;4963663;28;20507;-63
2022/07/23 06:04:46;;;;;;;12.88;2.65;;;20.80;99.90;;;;;;4956495;29;20039;-63
2022/07/23 06:07:11;;;;;;;1.25;1.15;;;21.00;99.90;;;;;;4957123;28;20331;-63
2022/07/23 06:09:37;;;;;;;1.13;0.90;;;21.20;99.90;;;;;;4971453;28;20124;-63
2022/07/23 06:12:03;;;;;;;0.90;0.55;;;21.30;99.90;;;;;;4956240;28;20511;-68
2022/07/23 06:14:29;;;;;;;1.65;1.00;;;21.50;99.90;;;;;;4956422;29;20035;-66
2022/07/23 06:16:55;;;;;;;6.22;2.13;;;21.50;99.90;;;;;;4955715;28;20491;-83
2022/07/23 06:19:20;;;;;;;0.30;0.30;;;21.60;99.90;;;;;;4956074;28;20086;-83
2022/07/23 06:21:46;;;;;;;0.50;0.50;;;21.60;99.90;;;;;;4971497;28;20120;-83
2022/07/23 06:24:12;;;;;;;0.25;0.25;;;21.50;99.90;;;;;;4955942;29;20039;-83
2022/07/23 06:26:37;;;;;;;0.75;0.75;;;21.50;99.90;;;;;;4956634;28;20439;-83
2022/07/23 06:29:03;;;;;;;0.88;0.80;;;21.60;99.90;;;;;;4956522;29;20039;-83
2022/07/23 06:31:29;;;;;;;1.17;1.08;;;21.40;99.90;;;;;;4956567;28;20039;-83
2022/07/23 06:33:55;;;;;;;0.55;0.55;;;21.30;99.90;;;;;;4970997;28;20491;-84
2022/07/23 06:36:20;;;;;;;2.10;1.50;;;21.30;99.90;;;;;;4956862;29;20027;-82
2022/07/23 06:38:46;;;;;;;0.35;0.22;;;21.20;99.90;;;;;;4956376;29;20157;-81
2022/07/23 06:41:12;;;;;;;0.68;0.47;;;21.40;99.90;;;;;;4971380;28;20090;-83
2022/07/23 06:43:38;;;;;;;1.55;1.10;;;21.60;99.90;;;;;;4955877;28;20035;-83
2022/07/23 06:46:03;;;;;;;0.80;0.65;;;21.60;99.90;;;;;;4956448;29;20032;-84
2022/07/23 06:48:30;;;;;;;17.60;13.30;;;21.60;99.90;;;;;;4971039;28;20496;-84
2022/07/23 06:50:56;;;;;;;0.82;0.68;;;21.80;99.90;;;;;;4955572;28;20115;-68
2022/07/23 06:53:22;;;;;;;0.70;0.70;;;21.80;99.90;;;;;;4957891;28;20087;-68
2022/07/23 06:55:47;;;;;;;0.10;0.10;;;22.10;99.90;;;;;;4952964;28;20083;-72
2022/07/23 06:58:14;;;;;;;0.55;0.55;;;22.60;99.90;;;;;;4966261;28;20038;-70
2022/07/23 07:00:40;;;;;;;2.83;1.23;;;22.90;99.90;;;;;;4955238;28;20027;-69
2022/07/23 07:03:06;;;;;;;0.93;0.90;;;23.00;99.90;;;;;;4953432;28;20031;-69
2022/07/23 07:05:32;;;;;;;0.45;0.38;;;23.00;99.90;;;;;;4954264;29;20035;-70
2022/07/23 07:07:58;;;;;;;4.68;2.80;;;23.10;99.90;;;;;;4955670;29;20023;-71
2022/07/23 07:10:24;;;;;;;2.10;1.95;;;22.90;99.90;;;;;;4954483;28;20031;-70
2022/07/23 07:12:49;;;;;;;0.30;0.30;;;22.80;99.90;;;;;;4953676;28;20032;-70
2022/07/23 07:15:15;;;;;;;1.60;1.17;;;22.70;99.90;;;;;;4954208;28;20074;-69
2022/07/23 07:17:42;;;;;;;0.57;0.57;;;22.90;99.90;;;;;;4955370;28;20447;-69
2022/07/23 07:20:09;;;;;;;0.52;0.38;;;22.60;99.90;;;;;;4955076;28;20038;-69
2022/07/23 07:22:35;;;;;;;6.05;0.77;;;22.80;99.90;;;;;;4954020;28;20031;-70
2022/07/23 07:25:01;;;;;;;0.68;0.68;;;22.70;99.90;;;;;;4953759;29;20118;-68
2022/07/23 07:27:27;;;;;;;1.10;1.02;;;22.90;99.90;;;;;;4954299;28;20127;-69
2022/07/23 07:29:53;;;;;;;0.65;0.40;;;22.70;99.90;;;;;;4953847;28;20451;-68
2022/07/23 07:32:18;;;;;;;0.68;0.68;;;23.00;99.90;;;;;;4955051;28;20110;-68
2022/07/23 07:34:44;;;;;;;0.65;0.65;;;22.80;99.90;;;;;;4954936;28;20499;-68
2022/07/23 07:37:10;;;;;;;0.93;0.88;;;22.90;99.90;;;;;;4955095;28;20498;-66
2022/07/23 07:39:35;;;;;;;0.32;0.32;;;23.10;99.90;;;;;;4954167;28;20031;-68
2022/07/23 07:42:01;;;;;;;1.35;0.85;;;22.90;99.90;;;;;;4957663;28;20035;-68
2022/07/23 07:44:27;;;;;;;1.65;0.93;;;23.30;99.90;;;;;;4971494;28;20042;-68
2022/07/23 07:46:52;;;;;;;1.55;1.13;;;23.80;99.90;;;;;;4963196;28;20043;-68
2022/07/23 07:49:19;;;;;;;0.65;0.43;;;23.80;99.90;;;;;;4973663;28;20046;-68
2022/07/23 07:51:45;;;;;;;0.30;0.30;;;23.70;99.90;;;;;;4973081;28;20023;-68
2022/07/23 07:54:12;;;;;;;1.08;1.00;;;24.00;99.90;;;;;;4970148;28;20475;-67
2022/07/23 07:56:38;;;;;;;1.25;0.98;;;23.90;99.90;;;;;;4953685;29;20035;-68
2022/07/23 07:59:04;;;;;;;1.00;0.90;;;23.80;99.90;;;;;;4953227;28;20035;-67
2022/07/23 08:01:30;;;;;;;1.65;1.02;;;24.00;99.90;;;;;;4954486;28;20114;-67
2022/07/23 08:03:56;;;;;;;0.70;0.70;;;24.30;99.90;;;;;;4952844;29;20390;-67
2022/07/23 08:06:21;;;;;;;1.15;0.43;;;24.20;99.90;;;;;;4953719;28;20770;-67
2022/07/23 08:08:48;;;;;;;0.38;0.38;;;24.00;99.90;;;;;;4954061;29;20039;-66
2022/07/23 08:11:14;;;;;;;1.10;0.57;;;24.30;99.90;;;;;;4953423;28;20392;-67
2022/07/23 08:13:40;;;;;;;0.65;0.65;;;24.00;99.90;;;;;;4954147;28;20042;-68
2022/07/23 08:16:06;;;;;;;2.47;0.88;;;24.10;99.90;;;;;;4954591;28;20431;-67
2022/07/23 08:18:32;;;;;;;1.08;0.63;;;24.20;99.90;;;;;;4952923;29;20023;-68
2022/07/23 08:20:58;;;;;;;0.85;0.55;;;24.30;99.90;;;;;;4953610;28;20102;-67
2022/07/23 08:23:24;;;;;;;0.30;0.30;;;24.10;99.90;;;;;;4952523;29;20078;-67
2022/07/23 08:25:50;;;;;;;0.65;0.55;;;24.00;99.90;;;;;;4952425;28;20031;-68
2022/07/23 08:28:15;;;;;;;0.65;0.65;;;23.50;99.90;;;;;;4954063;28;20047;-69
2022/07/23 08:30:44;;;;;;;0.70;0.70;;;23.70;99.90;;;;;;4953703;28;20670;-69
2022/07/23 08:33:16;;;;;;;0.20;0.20;;;23.90;99.90;;;;;;4953546;28;20073;-68
2022/07/23 08:35:49;;;;;;;0.30;0.30;;;24.20;99.90;;;;;;4953763;28;20074;-69
2022/07/23 08:38:19;;;;;;;0.35;0.35;;;23.60;99.90;;;;;;4953091;28;20055;-68
2022/07/23 08:40:52;;;;;;;1.95;1.02;;;24.00;99.90;;;;;;4952008;29;20055;-69
2022/07/23 08:43:22;;;;;;;3.22;0.55;;;24.10;99.90;;;;;;4951996;29;20042;-69
2022/07/23 08:45:51;;;;;;;0.20;0.20;;;24.00;99.90;;;;;;4954156;28;20038;-69
2022/07/23 08:48:18;;;;;;;3.75;1.25;;;23.70;99.90;;;;;;4952860;29;20283;-66
2022/07/23 08:50:56;;;;;;;0.60;0.60;;;23.60;99.90;;;;;;4951975;29;20047;-67
2022/07/23 08:53:24;;;;;;;1.95;1.38;;;24.10;99.90;;;;;;4952210;29;20035;-67
2022/07/23 08:55:57;;;;;;;0.45;0.45;;;23.90;99.90;;;;;;4951528;28;20039;-75
2022/07/23 08:58:24;;;;;;;0.35;0.20;;;24.30;99.90;;;;;;4949195;29;20132;-77
2022/07/23 09:00:53;;;;;;;0.60;0.55;;;24.00;99.90;;;;;;4967865;28;20024;-80
2022/07/23 09:03:32;;;;;;;1.45;0.68;;;24.10;99.90;;;;;;4951782;28;20372;-81
2022/07/23 09:06:00;;;;;;;0.90;0.43;;;24.50;99.90;;;;;;4967425;28;20062;-80
2022/07/23 09:08:47;;;;;;;0.50;0.43;;;24.40;99.90;;;;;;4953465;28;20038;-79
2022/07/23 09:11:16;;;;;;;0.13;0.13;;;24.80;99.90;;;;;;4950245;29;20094;-81
2022/07/23 09:13:53;;;;;;;1.45;0.82;;;24.90;99.90;;;;;;4951690;29;20039;-79
2022/07/23 09:16:29;;;;;;;0.30;0.30;;;24.80;99.90;;;;;;4952452;29;20059;-80
2022/07/23 09:19:07;;;;;;;0.57;0.32;;;24.60;99.90;;;;;;4952059;29;20062;-79
2022/07/23 09:21:38;;;;;;;1.38;1.02;;;25.00;99.90;;;;;;4952188;29;20106;-78
2022/07/23 09:24:07;;;;;;;0.68;0.63;;;24.90;99.90;;;;;;4953073;29;20062;-81
2022/07/23 09:26:49;;;;;;;0.70;0.65;;;24.10;99.90;;;;;;4953303;29;20035;-81
2022/07/23 09:29:27;;;;;;;3.13;0.70;;;24.10;99.90;;;;;;4953312;28;20042;-80
2022/07/23 09:32:02;;;;;;;6.30;0.93;;;24.30;99.90;;;;;;4952340;29;20035;-78
2022/07/23 09:34:30;;;;;;;1.10;0.70;;;24.30;99.90;;;;;;4952958;28;20039;-78
2022/07/23 09:37:13;;;;;;;2.15;1.25;;;24.40;99.90;;;;;;4952256;29;20031;-76
2022/07/23 09:39:39;;;;;;;0.40;0.28;;;24.90;99.90;;;;;;4953254;28;20542;-77
2022/07/23 09:42:17;;;;;;;3.25;1.17;;;24.80;99.90;;;;;;4951944;29;20035;-63
2022/07/23 09:44:46;;;;;;;0.68;0.63;;;25.30;99.90;;;;;;4953218;28;20460;-63
2022/07/23 09:47:11;;;;;;;0.55;0.55;;;25.60;99.90;;;;;;4952960;29;20023;-63
2022/07/23 09:49:37;;;;;;;0.25;0.25;;;25.30;99.90;;;;;;4952606;28;20243;-65
2022/07/23 09:52:03;;;;;;;0.98;0.52;;;25.40;99.90;;;;;;4952496;28;20401;-65
2022/07/23 09:54:40;;;;;;;1.55;0.77;;;25.30;99.90;;;;;;4952449;28;20035;-66
2022/07/23 09:57:14;;;;;;;1.40;1.30;;;25.10;99.90;;;;;;4952857;28;20027;-66
2022/07/23 09:59:40;;;;;;;3.83;0.88;;;24.50;99.90;;;;;;4952000;28;20027;-66
2022/07/23 10:02:09;;;;;;;0.45;0.45;;;24.60;99.90;;;;;;4952361;29;20035;-65
2022/07/23 10:04:36;;;;;;;3.83;1.27;;;24.90;99.90;;;;;;4951533;29;20035;-66
2022/07/23 10:07:05;;;;;;;1.05;0.95;;;25.10;99.90;;;;;;4952595;29;20118;-65
2022/07/23 10:09:35;;;;;;;2.78;1.55;;;25.10;99.90;;;;;;4951169;29;20082;-64
2022/07/23 10:14:33;;;;;;;0.60;0.60;;;25.50;99.90;;;;;;4952219;29;20039;-65
2022/07/23 10:17:01;;;;;;;6.97;1.75;;;25.70;99.90;;;;;;4951351;29;20031;-64
2022/07/23 10:19:27;;;;;;;0.45;0.38;;;25.80;99.90;;;;;;4952038;28;20035;-64
2022/07/23 10:22:11;;;;;;;1.13;1.02;;;25.90;99.90;;;;;;4923708;28;20110;-64
2022/07/23 10:25:13;;;;;;;0.77;0.35;;;26.50;99.90;;;;;;4936915;29;20480;-65
2022/07/23 10:28:15;;;;;;;2.47;0.98;;;26.70;99.90;;;;;;4922743;28;20039;-65
2022/07/23 10:31:23;;;;;;;1.48;1.38;;;26.30;99.90;;;;;;4911548;29;20393;-64
2022/07/23 10:34:20;;;;;;;3.03;1.13;;;26.50;99.90;;;;;;4952218;29;20069;-65
2022/07/23 10:36:58;;;;;;;3.47;0.80;;;27.00;99.90;;;;;;4934579;29;20043;-64
2022/07/23 10:39:32;;;;;;;0.32;0.32;;;26.80;99.90;;;;;;4951858;28;20179;-63
2022/07/23 10:42:09;;;;;;;0.45;0.45;;;26.30;99.90;;;;;;4965977;28;20027;-64
2022/07/23 10:44:47;;;;;;;1.05;0.95;;;26.60;99.90;;;;;;4966713;28;20027;-64
2022/07/23 10:49:52;;;;;;;0.75;0.75;;;27.10;99.90;;;;;;4955957;29;20039;-64
2022/07/23 10:52:26;;;;;;;0.40;0.40;;;27.20;99.80;;;;;;4970353;28;20188;-64
2022/07/23 10:55:07;;;;;;;1.83;1.40;;;27.10;99.90;;;;;;4970151;28;20549;-64
2022/07/23 10:57:49;;;;;;;1.55;0.90;;;27.00;99.90;;;;;;4952279;29;20476;-65
2022/07/23 11:00:24;;;;;;;2.35;1.08;;;27.20;99.60;;;;;;4968304;28;20024;-64
2022/07/23 11:02:54;;;;;;;1.70;1.33;;;27.40;99.90;;;;;;4954396;29;20510;-64
2022/07/23 11:05:23;;;;;;;1.10;0.95;;;27.90;99.00;;;;;;4955742;28;20035;-64
2022/07/23 11:08:04;;;;;;;1.67;1.08;;;27.80;97.60;;;;;;4955691;28;20035;-64
2022/07/23 11:10:55;;;;;;;2.30;1.13;;;27.60;98.00;;;;;;4954928;29;20038;-68
2022/07/23 11:13:24;;;;;;;0.40;0.40;;;27.50;98.30;;;;;;4955359;28;20035;-69
2022/07/23 11:16:04;;;;;;;0.03;0.03;;;27.80;98.20;;;;;;4955042;29;20506;-68
2022/07/23 11:18:42;;;;;;;1.55;0.35;;;28.40;97.70;;;;;;4955564;29;20085;-68
2022/07/23 11:21:23;;;;;;;1.75;1.17;;;29.00;96.70;;;;;;4955257;28;20094;-69
2022/07/23 11:24:09;;;;;;;0.25;0.25;;;28.90;96.30;;;;;;4927715;28;20059;-69
2022/07/23 11:26:38;;;;;;;0.32;0.30;;;29.30;95.80;;;;;;4953981;29;20495;-69
2022/07/23 11:29:26;;;;;;;0.73;0.63;;;29.30;95.10;;;;;;4969907;28;20035;-69
2022/07/23 11:31:56;;;;;;;0.70;0.70;;;28.60;94.80;;;;;;4954954;28;20035;-69
2022/07/23 11:34:38;;;;;;;0.93;0.75;;;29.10;94.60;;;;;;4955055;28;20027;-68
2022/07/23 11:37:06;;;;;;;0.88;0.80;;;29.30;94.50;;;;;;4955228;29;20106;-68
2022/07/23 11:39:33;;;;;;;0.35;0.35;;;29.30;94.10;;;;;;4954241;28;20535;-68
2022/07/23 11:42:01;;;;;;;0.43;0.43;;;28.80;94.80;;;;;;4954625;28;20475;-69
2022/07/23 11:44:29;;;;;;;1.83;0.80;;;28.70;94.90;;;;;;4953345;29;20039;-69
2022/07/23 11:47:10;;;;;;;0.80;0.65;;;28.80;94.90;;;;;;4954015;29;20035;-68
2022/07/23 11:49:36;;;;;;;3.10;1.17;;;28.90;94.70;;;;;;4954555;28;20075;-69
2022/07/23 11:52:13;;;;;;;2.53;1.52;;;28.70;94.50;;;;;;4953291;29;20142;-69
2022/07/23 11:54:59;;;;;;;1.58;0.98;;;28.50;94.80;;;;;;4958820;28;20374;-69
2022/07/23 11:57:43;;;;;;;0.45;0.45;;;28.50;94.50;;;;;;4973903;28;20150;-70
2022/07/23 12:00:22;;;;;;;1.00;0.85;;;28.40;94.70;;;;;;4972191;28;20031;-69
2022/07/23 12:02:56;;;;;;;1.98;0.35;;;28.70;94.70;;;;;;4972464;28;20073;-69
2022/07/23 12:05:28;;;;;;;0.65;0.65;;;27.90;95.30;;;;;;4956733;28;20517;-70
2022/07/23 12:07:55;;;;;;;1.05;1.00;;;28.00;95.10;;;;;;4973770;28;20062;-68
2022/07/23 12:10:39;;;;;;;0.55;0.55;;;28.20;94.60;;;;;;4973249;28;20033;-69
2022/07/23 12:13:10;;;;;;;0.73;0.52;;;28.50;93.90;;;;;;4972405;28;20039;-69
2022/07/23 12:15:44;;;;;;;3.28;1.48;;;28.50;93.90;;;;;;4972420;28;20039;-69
2022/07/23 12:18:14;;;;;;;1.50;1.30;;;28.40;94.40;;;;;;4973730;28;20042;-69
2022/07/23 12:20:44;;;;;;;0.60;0.60;;;28.50;94.10;;;;;;4972343;28;20054;-70
2022/07/23 12:23:13;;;;;;;0.98;0.95;;;28.10;94.30;;;;;;4971979;28;20036;-69
2022/07/23 12:25:43;;;;;;;0.35;0.35;;;28.00;94.50;;;;;;4971912;28;20472;-70
2022/07/23 12:28:29;;;;;;;0.73;0.50;;;28.00;94.90;;;;;;4972291;28;20074;-69
2022/07/23 12:30:57;;;;;;;2.20;0.88;;;27.90;94.90;;;;;;4973151;28;20547;-67
2022/07/23 12:33:35;;;;;;;1.20;1.10;;;27.80;96.10;;;;;;4988322;28;20126;-68
2022/07/23 12:36:05;;;;;;;3.70;0.70;;;27.80;95.20;;;;;;4973277;28;20439;-66
2022/07/23 12:38:51;;;;;;;2.97;0.57;;;27.60;96.00;;;;;;4973611;28;20026;-67
2022/07/23 12:41:17;;;;;;;0.82;0.80;;;27.20;95.70;;;;;;4968559;28;20054;-67
2022/07/23 12:43:46;;;;;;;2.28;1.50;;;27.30;96.30;;;;;;4971613;28;20520;-67
2022/07/23 12:46:22;;;;;;;0.95;0.88;;;27.20;95.90;;;;;;4972010;28;20069;-67
2022/07/23 12:48:49;;;;;;;1.27;0.50;;;27.50;96.50;;;;;;4971657;28;20030;-73
2022/07/23 12:51:28;;;;;;;1.75;1.27;;;27.90;96.40;;;;;;4988166;28;20066;-71
2022/07/23 12:54:05;;;;;;;1.02;0.93;;;28.60;95.30;;;;;;4956631;28;20031;-72
2022/07/23 12:56:33;;;;;;;5.57;1.33;;;29.60;93.80;;;;;;4934632;29;20028;-73
2022/07/23 12:59:10;;;;;;;0.85;0.80;;;29.80;93.20;;;;;;4948622;29;20028;-70